sensor_id;sensor_type;location;lat;lon;timestamp;pressure;altitude;pressure_sealevel;temperature;humidity
72798;BME280;61084;55.816;37.036;2023-12-20T00:01:08;97709.19;;;4.29;74.93
72798;BME280;61084;55.816;37.036;2023-12-20T00:03:33;97717.00;;;4.29;74.37
72798;BME280;61084;55.816;37.036;2023-12-20T00:06:00;97720.34;;;4.31;74.60
72798;BME280;61084;55.816;37.036;2023-12-20T00:08:26;97719.44;;;4.32;74.94
72798;BME280;61084;55.816;37.036;2023-12-20T00:10:52;97726.38;;;4.31;74.89
72798;BME280;61084;55.816;37.036;2023-12-20T00:13:17;97729.91;;;4.30;74.32
72798;BME280;61084;55.816;37.036;2023-12-20T00:15:43;97728.88;;;4.33;74.23
72798;BME280;61084;55.816;37.036;2023-12-20T00:18:09;97728.06;;;4.32;74.79
72798;BME280;61084;55.816;37.036;2023-12-20T00:20:35;97723.69;;;4.33;74.37
72798;BME280;61084;55.816;37.036;2023-12-20T00:23:01;97725.47;;;4.32;74.66
72798;BME280;61084;55.816;37.036;2023-12-20T00:25:28;97721.94;;;4.33;74.27
72798;BME280;61084;55.816;37.036;2023-12-20T00:27:53;97729.97;;;4.29;74.67
72798;BME280;61084;55.816;37.036;2023-12-20T00:30:19;97735.16;;;4.29;74.38
72798;BME280;61084;55.816;37.036;2023-12-20T00:32:45;97740.22;;;4.32;74.61
72798;BME280;61084;55.816;37.036;2023-12-20T00:35:14;97744.47;;;4.33;74.89
72798;BME280;61084;55.816;37.036;2023-12-20T00:37:40;97751.44;;;4.32;74.84
72798;BME280;61084;55.816;37.036;2023-12-20T00:40:07;97748.75;;;4.34;74.67
72798;BME280;61084;55.816;37.036;2023-12-20T00:42:33;97745.31;;;4.33;74.46
72798;BME280;61084;55.816;37.036;2023-12-20T00:44:59;97735.91;;;4.31;74.80
72798;BME280;61084;55.816;37.036;2023-12-20T00:47:26;97738.53;;;4.31;74.65
72798;BME280;61084;55.816;37.036;2023-12-20T00:49:52;97734.16;;;4.31;74.53
72798;BME280;61084;55.816;37.036;2023-12-20T00:52:18;97731.56;;;4.31;74.47
72798;BME280;61084;55.816;37.036;2023-12-20T00:54:45;97725.47;;;4.32;74.75
72798;BME280;61084;55.816;37.036;2023-12-20T00:57:11;97719.28;;;4.35;74.54
72798;BME280;61084;55.816;37.036;2023-12-20T00:59:37;97714.09;;;4.35;74.58
72798;BME280;61084;55.816;37.036;2023-12-20T01:02:03;97719.28;;;4.35;74.82
72798;BME280;61084;55.816;37.036;2023-12-20T01:04:29;97725.47;;;4.32;74.39
72798;BME280;61084;55.816;37.036;2023-12-20T01:06:54;97722.69;;;4.35;74.36
72798;BME280;61084;55.816;37.036;2023-12-20T01:09:20;97708.03;;;4.34;74.83
72798;BME280;61084;55.816;37.036;2023-12-20T01:11:49;97700.31;;;4.33;74.87
72798;BME280;61084;55.816;37.036;2023-12-20T01:14:15;97689.19;;;4.31;74.66
72798;BME280;61084;55.816;37.036;2023-12-20T01:16:40;97691.13;;;4.27;74.54
72798;BME280;61084;55.816;37.036;2023-12-20T01:19:06;97696.31;;;4.27;74.13
72798;BME280;61084;55.816;37.036;2023-12-20T01:21:32;97695.41;;;4.28;74.34
72798;BME280;61084;55.816;37.036;2023-12-20T01:23:58;97694.63;;;4.26;74.72
72798;BME280;61084;55.816;37.036;2023-12-20T01:26:24;97699.91;;;4.25;74.59
72798;BME280;61084;55.816;37.036;2023-12-20T01:28:50;97693.13;;;4.22;74.52
72798;BME280;61084;55.816;37.036;2023-12-20T01:31:15;97692.13;;;4.25;74.71
72798;BME280;61084;55.816;37.036;2023-12-20T01:33:41;97683.56;;;4.23;74.56
72798;BME280;61084;55.816;37.036;2023-12-20T01:36:07;97693.88;;;4.24;74.52
72798;BME280;61084;55.816;37.036;2023-12-20T01:38:33;97681.06;;;4.21;74.27
72798;BME280;61084;55.816;37.036;2023-12-20T01:40:59;97680.97;;;4.23;74.31
72798;BME280;61084;55.816;37.036;2023-12-20T01:43:25;97675.03;;;4.21;74.15
72798;BME280;61084;55.816;37.036;2023-12-20T01:45:52;97680.97;;;4.23;74.62
72798;BME280;61084;55.816;37.036;2023-12-20T01:48:19;97675.94;;;4.20;74.82
72798;BME280;61084;55.816;37.036;2023-12-20T01:50:45;97671.69;;;4.19;74.62
72798;BME280;61084;55.816;37.036;2023-12-20T01:53:12;97655.28;;;4.18;74.31
72798;BME280;61084;55.816;37.036;2023-12-20T01:55:40;97646.47;;;4.21;74.76
72798;BME280;61084;55.816;37.036;2023-12-20T01:58:07;97627.56;;;4.19;74.63
72798;BME280;61084;55.816;37.036;2023-12-20T02:00:35;97627.66;;;4.17;74.75
72798;BME280;61084;55.816;37.036;2023-12-20T02:03:02;97636.34;;;4.16;74.35
72798;BME280;61084;55.816;37.036;2023-12-20T02:05:29;97647.72;;;4.14;74.57
72798;BME280;61084;55.816;37.036;2023-12-20T02:07:56;97643.38;;;4.14;74.37
72798;BME280;61084;55.816;37.036;2023-12-20T02:10:22;97656.28;;;4.16;74.20
72798;BME280;61084;55.816;37.036;2023-12-20T02:12:48;97653.63;;;4.17;74.65
72798;BME280;61084;55.816;37.036;2023-12-20T02:15:14;97651.94;;;4.16;74.64
72798;BME280;61084;55.816;37.036;2023-12-20T02:17:41;97649.31;;;4.16;74.17
72798;BME280;61084;55.816;37.036;2023-12-20T02:20:07;97651.06;;;4.16;74.55
72798;BME280;61084;55.816;37.036;2023-12-20T02:22:33;97646.72;;;4.16;74.35
72798;BME280;61084;55.816;37.036;2023-12-20T02:24:59;97648.31;;;4.19;74.33
72798;BME280;61084;55.816;37.036;2023-12-20T02:27:25;97643.22;;;4.17;74.68
72798;BME280;61084;55.816;37.036;2023-12-20T02:29:51;97640.69;;;4.16;74.48
72798;BME280;61084;55.816;37.036;2023-12-20T02:32:17;97648.47;;;4.16;74.60
72798;BME280;61084;55.816;37.036;2023-12-20T02:34:44;97644.22;;;4.15;74.81
72798;BME280;61084;55.816;37.036;2023-12-20T02:37:09;97648.47;;;4.16;75.13
72798;BME280;61084;55.816;37.036;2023-12-20T02:39:35;97641.53;;;4.16;74.76
72798;BME280;61084;55.816;37.036;2023-12-20T02:42:01;97652.69;;;4.18;74.53
72798;BME280;61084;55.816;37.036;2023-12-20T02:44:27;97644.78;;;4.20;74.63
72798;BME280;61084;55.816;37.036;2023-12-20T02:46:53;97656.88;;;4.21;74.78
72798;BME280;61084;55.816;37.036;2023-12-20T02:49:19;97647.22;;;4.23;74.98
72798;BME280;61084;55.816;37.036;2023-12-20T02:51:45;97648.91;;;4.24;74.75
72798;BME280;61084;55.816;37.036;2023-12-20T02:54:12;97647.13;;;4.24;74.69
72798;BME280;61084;55.816;37.036;2023-12-20T02:56:37;97639.53;;;4.21;74.77
72798;BME280;61084;55.816;37.036;2023-12-20T02:59:03;97634.50;;;4.18;74.67
72798;BME280;61084;55.816;37.036;2023-12-20T03:01:31;97620.88;;;4.15;75.02
72798;BME280;61084;55.816;37.036;2023-12-20T03:03:57;97626.81;;;4.17;74.82
72798;BME280;61084;55.816;37.036;2023-12-20T03:06:23;97627.66;;;4.17;75.17
72798;BME280;61084;55.816;37.036;2023-12-20T03:08:50;97635.44;;;4.17;74.74
72798;BME280;61084;55.816;37.036;2023-12-20T03:11:16;97631.91;;;4.18;75.00
72798;BME280;61084;55.816;37.036;2023-12-20T03:13:41;97628.31;;;4.21;75.08
72798;BME280;61084;55.816;37.036;2023-12-20T03:16:12;97630.81;;;4.22;74.89
72798;BME280;61084;55.816;37.036;2023-12-20T03:18:38;97623.84;;;4.23;74.95
72798;BME280;61084;55.816;37.036;2023-12-20T03:21:05;97636.75;;;4.24;74.66
72798;BME280;61084;55.816;37.036;2023-12-20T03:23:31;97640.38;;;4.22;75.01
72798;BME280;61084;55.816;37.036;2023-12-20T03:25:59;97643.97;;;4.19;74.66
72798;BME280;61084;55.816;37.036;2023-12-20T03:28:26;97648.31;;;4.19;75.09
72798;BME280;61084;55.816;37.036;2023-12-20T03:30:52;97637.09;;;4.18;74.59
72798;BME280;61084;55.816;37.036;2023-12-20T03:33:18;97637.09;;;4.18;75.12
72798;BME280;61084;55.816;37.036;2023-12-20T03:35:43;97629.31;;;4.18;74.61
72798;BME280;61084;55.816;37.036;2023-12-20T03:38:10;97624.97;;;4.19;75.22
72798;BME280;61084;55.816;37.036;2023-12-20T03:40:35;97628.47;;;4.18;75.30
72798;BME280;61084;55.816;37.036;2023-12-20T03:43:01;97626.97;;;4.14;74.69
72798;BME280;61084;55.816;37.036;2023-12-20T03:45:27;97620.94;;;4.13;74.87
72798;BME280;61084;55.816;37.036;2023-12-20T03:47:53;97635.50;;;4.16;74.98
72798;BME280;61084;55.816;37.036;2023-12-20T03:50:22;97644.13;;;4.16;74.99
72798;BME280;61084;55.816;37.036;2023-12-20T03:52:48;97646.72;;;4.16;75.06
72798;BME280;61084;55.816;37.036;2023-12-20T03:55:15;97640.69;;;4.16;75.36
72798;BME280;61084;55.816;37.036;2023-12-20T03:57:41;97639.09;;;4.13;75.04
72798;BME280;61084;55.816;37.036;2023-12-20T04:00:07;97638.28;;;4.13;74.77
72798;BME280;61084;55.816;37.036;2023-12-20T04:02:40;97635.00;;;4.09;74.87
72798;BME280;61084;55.816;37.036;2023-12-20T04:05:08;97637.69;;;4.08;74.97
72798;BME280;61084;55.816;37.036;2023-12-20T04:07:35;97640.53;;;4.03;74.94
72798;BME280;61084;55.816;37.036;2023-12-20T04:10:01;97649.06;;;4.05;75.00
72798;BME280;61084;55.816;37.036;2023-12-20T04:12:32;97637.03;;;4.04;75.01
72798;BME280;61084;55.816;37.036;2023-12-20T04:14:58;97654.38;;;4.04;74.71
72798;BME280;61084;55.816;37.036;2023-12-20T04:17:24;97656.03;;;4.05;74.38
72798;BME280;61084;55.816;37.036;2023-12-20T04:19:50;97657.88;;;4.03;74.90
72798;BME280;61084;55.816;37.036;2023-12-20T04:22:19;97671.59;;;4.05;74.38
72798;BME280;61084;55.816;37.036;2023-12-20T04:24:45;97670.69;;;4.06;74.63
72798;BME280;61084;55.816;37.036;2023-12-20T04:27:11;97671.53;;;4.06;74.62
72798;BME280;61084;55.816;37.036;2023-12-20T04:29:37;97673.38;;;4.04;74.53
72798;BME280;61084;55.816;37.036;2023-12-20T04:32:04;97665.50;;;4.06;74.38
72798;BME280;61084;55.816;37.036;2023-12-20T04:34:30;97664.66;;;4.05;74.98
72798;BME280;61084;55.816;37.036;2023-12-20T04:36:55;97675.03;;;4.05;75.09
72798;BME280;61084;55.816;37.036;2023-12-20T04:39:21;97679.22;;;4.08;74.71
72798;BME280;61084;55.816;37.036;2023-12-20T04:41:49;97685.16;;;4.10;74.69
72798;BME280;61084;55.816;37.036;2023-12-20T04:44:15;97681.72;;;4.09;75.18
72798;BME280;61084;55.816;37.036;2023-12-20T04:46:41;97673.94;;;4.09;74.65
72798;BME280;61084;55.816;37.036;2023-12-20T04:49:07;97671.28;;;4.11;74.48
72798;BME280;61084;55.816;37.036;2023-12-20T04:51:34;97676.38;;;4.12;74.73
72798;BME280;61084;55.816;37.036;2023-12-20T04:54:03;97674.53;;;4.14;75.11
72798;BME280;61084;55.816;37.036;2023-12-20T04:56:29;97677.88;;;4.16;74.43
72798;BME280;61084;55.816;37.036;2023-12-20T04:58:55;97671.84;;;4.16;74.89
72798;BME280;61084;55.816;37.036;2023-12-20T05:01:21;97676.03;;;4.18;74.97
72798;BME280;61084;55.816;37.036;2023-12-20T05:03:47;97667.41;;;4.18;74.98
72798;BME280;61084;55.816;37.036;2023-12-20T05:06:13;97676.88;;;4.19;74.92
72798;BME280;61084;55.816;37.036;2023-12-20T05:08:39;97676.88;;;4.19;74.74
72798;BME280;61084;55.816;37.036;2023-12-20T05:11:05;97676.03;;;4.18;74.61
72798;BME280;61084;55.816;37.036;2023-12-20T05:13:30;97682.91;;;4.19;74.35
72798;BME280;61084;55.816;37.036;2023-12-20T05:15:56;97682.06;;;4.19;74.44
72798;BME280;61084;55.816;37.036;2023-12-20T05:18:22;97692.22;;;4.08;74.56
72798;BME280;61084;55.816;37.036;2023-12-20T05:20:50;97692.22;;;4.08;75.14
72798;BME280;61084;55.816;37.036;2023-12-20T05:23:17;97686.09;;;4.09;74.75
72798;BME280;61084;55.816;37.036;2023-12-20T05:25:43;97691.38;;;4.07;74.87
72798;BME280;61084;55.816;37.036;2023-12-20T05:28:09;97704.34;;;4.07;74.59
72798;BME280;61084;55.816;37.036;2023-12-20T05:30:35;97700.84;;;4.08;75.12
72798;BME280;61084;55.816;37.036;2023-12-20T05:33:01;97706.09;;;4.07;74.95
72798;BME280;61084;55.816;37.036;2023-12-20T05:35:27;97698.31;;;4.07;74.91
72798;BME280;61084;55.816;37.036;2023-12-20T05:37:53;97693.13;;;4.07;74.95
72798;BME280;61084;55.816;37.036;2023-12-20T05:40:19;97691.31;;;4.09;74.75
72798;BME280;61084;55.816;37.036;2023-12-20T05:42:45;97694.66;;;4.11;74.35
72798;BME280;61084;55.816;37.036;2023-12-20T05:45:11;97690.38;;;4.10;74.83
72798;BME280;61084;55.816;37.036;2023-12-20T05:47:37;97692.97;;;4.10;74.74
72798;BME280;61084;55.816;37.036;2023-12-20T05:50:03;97694.66;;;4.11;74.83
72798;BME280;61084;55.816;37.036;2023-12-20T05:52:31;97694.72;;;4.09;74.70
72798;BME280;61084;55.816;37.036;2023-12-20T05:54:57;97705.09;;;4.09;74.81
72798;BME280;61084;55.816;37.036;2023-12-20T05:57:32;97687.88;;;4.08;74.22
72798;BME280;61084;55.816;37.036;2023-12-20T05:59:58;97701.75;;;4.07;74.98
72798;BME280;61084;55.816;37.036;2023-12-20T06:02:24;97693.97;;;4.07;74.92
72798;BME280;61084;55.816;37.036;2023-12-20T06:04:50;97694.81;;;4.08;74.41
72798;BME280;61084;55.816;37.036;2023-12-20T06:07:16;97698.31;;;4.07;74.47
72798;BME280;61084;55.816;37.036;2023-12-20T06:09:42;97700.09;;;4.06;74.48
72798;BME280;61084;55.816;37.036;2023-12-20T06:12:08;97704.28;;;4.09;74.85
72798;BME280;61084;55.816;37.036;2023-12-20T06:14:34;97704.28;;;4.09;74.72
72798;BME280;61084;55.816;37.036;2023-12-20T06:17:00;97709.38;;;4.10;74.82
72798;BME280;61084;55.816;37.036;2023-12-20T06:19:27;97710.22;;;4.11;74.94
72798;BME280;61084;55.816;37.036;2023-12-20T06:21:53;97711.03;;;4.11;74.38
72798;BME280;61084;55.816;37.036;2023-12-20T06:24:19;97713.63;;;4.11;74.56
72798;BME280;61084;55.816;37.036;2023-12-20T06:26:45;97716.31;;;4.10;74.95
72798;BME280;61084;55.816;37.036;2023-12-20T06:29:12;97718.91;;;4.10;74.99
72798;BME280;61084;55.816;37.036;2023-12-20T06:31:38;97720.63;;;4.11;74.92
72798;BME280;61084;55.816;37.036;2023-12-20T06:34:04;97709.28;;;4.12;74.84
72798;BME280;61084;55.816;37.036;2023-12-20T06:36:29;97716.97;;;4.13;74.68
72798;BME280;61084;55.816;37.036;2023-12-20T06:38:55;97713.56;;;4.13;74.86
72798;BME280;61084;55.816;37.036;2023-12-20T06:41:21;97725.63;;;4.14;74.60
72798;BME280;61084;55.816;37.036;2023-12-20T06:43:50;97719.53;;;4.15;74.70
72798;BME280;61084;55.816;37.036;2023-12-20T06:46:17;97719.44;;;4.16;75.04
72798;BME280;61084;55.816;37.036;2023-12-20T06:48:43;97726.22;;;4.19;74.86
72798;BME280;61084;55.816;37.036;2023-12-20T06:51:13;97715.75;;;4.20;74.57
72798;BME280;61084;55.816;37.036;2023-12-20T06:53:39;97716.50;;;4.22;75.01
72798;BME280;61084;55.816;37.036;2023-12-20T06:56:05;97707.19;;;4.18;74.82
72798;BME280;61084;55.816;37.036;2023-12-20T06:58:32;97714.97;;;4.18;74.81
72798;BME280;61084;55.816;37.036;2023-12-20T07:00:58;97715.81;;;4.19;74.62
72798;BME280;61084;55.816;37.036;2023-12-20T07:03:24;97718.34;;;4.20;74.64
72798;BME280;61084;55.816;37.036;2023-12-20T07:05:50;97711.28;;;4.22;74.66
72798;BME280;61084;55.816;37.036;2023-12-20T07:08:16;97715.69;;;4.22;74.76
72798;BME280;61084;55.816;37.036;2023-12-20T07:10:42;97720.03;;;4.21;74.78
72798;BME280;61084;55.816;37.036;2023-12-20T07:13:08;97715.75;;;4.20;74.53
72798;BME280;61084;55.816;37.036;2023-12-20T07:15:34;97719.09;;;4.22;74.67
72798;BME280;61084;55.816;37.036;2023-12-20T07:17:59;97722.53;;;4.23;74.57
72798;BME280;61084;55.816;37.036;2023-12-20T07:20:26;97716.44;;;4.24;74.86
72798;BME280;61084;55.816;37.036;2023-12-20T07:22:52;97724.13;;;4.25;75.07
72798;BME280;61084;55.816;37.036;2023-12-20T07:25:18;97729.31;;;4.25;75.07
72798;BME280;61084;55.816;37.036;2023-12-20T07:27:44;97729.22;;;4.27;74.91
72798;BME280;61084;55.816;37.036;2023-12-20T07:30:10;97735.50;;;4.23;74.90
72798;BME280;61084;55.816;37.036;2023-12-20T07:32:36;97738.84;;;4.25;75.04
72798;BME280;61084;55.816;37.036;2023-12-20T07:35:02;97749.09;;;4.28;74.65
72798;BME280;61084;55.816;37.036;2023-12-20T07:37:29;97744.75;;;4.28;74.84
72798;BME280;61084;55.816;37.036;2023-12-20T07:39:55;97739.56;;;4.28;74.91
72798;BME280;61084;55.816;37.036;2023-12-20T07:42:21;97738.63;;;4.29;74.40
72798;BME280;61084;55.816;37.036;2023-12-20T07:44:48;97745.66;;;4.27;74.64
72798;BME280;61084;55.816;37.036;2023-12-20T07:47:13;97741.97;;;4.31;74.80
72798;BME280;61084;55.816;37.036;2023-12-20T07:49:42;97747.91;;;4.33;74.78
72798;BME280;61084;55.816;37.036;2023-12-20T07:52:08;97753.03;;;4.35;74.52
72798;BME280;61084;55.816;37.036;2023-12-20T07:54:34;97759.75;;;4.39;74.68
72798;BME280;61084;55.816;37.036;2023-12-20T07:57:00;97761.34;;;4.41;74.74
72798;BME280;61084;55.816;37.036;2023-12-20T07:59:26;97759.56;;;4.42;74.76
72798;BME280;61084;55.816;37.036;2023-12-20T08:01:52;97755.94;;;4.44;74.43
72798;BME280;61084;55.816;37.036;2023-12-20T08:04:18;97764.44;;;4.48;74.88
72798;BME280;61084;55.816;37.036;2023-12-20T08:06:44;97762.75;;;4.47;74.53
72798;BME280;61084;55.816;37.036;2023-12-20T08:09:10;97759.25;;;4.48;74.83
72798;BME280;61084;55.816;37.036;2023-12-20T08:11:36;97760.06;;;4.48;75.00
72798;BME280;61084;55.816;37.036;2023-12-20T08:14:02;97753.84;;;4.51;74.40
72798;BME280;61084;55.816;37.036;2023-12-20T08:16:28;97758.06;;;4.53;74.90
72798;BME280;61084;55.816;37.036;2023-12-20T08:18:54;97764.94;;;4.54;74.86
72798;BME280;61084;55.816;37.036;2023-12-20T08:21:20;97766.50;;;4.57;74.44
72798;BME280;61084;55.816;37.036;2023-12-20T08:23:47;97766.34;;;4.60;74.70
72798;BME280;61084;55.816;37.036;2023-12-20T08:26:18;97768.84;;;4.62;74.72
72798;BME280;61084;55.816;37.036;2023-12-20T08:28:46;97761.91;;;4.62;74.90
72798;BME280;61084;55.816;37.036;2023-12-20T08:31:18;97758.31;;;4.65;74.67
72798;BME280;61084;55.816;37.036;2023-12-20T08:33:45;97762.66;;;4.64;74.39
72798;BME280;61084;55.816;37.036;2023-12-20T08:36:13;97753.00;;;4.66;74.41
72798;BME280;61084;55.816;37.036;2023-12-20T08:38:39;97750.31;;;4.68;74.72
72798;BME280;61084;55.816;37.036;2023-12-20T08:41:06;97750.31;;;4.68;74.83
72798;BME280;61084;55.816;37.036;2023-12-20T08:43:36;97748.50;;;4.70;74.56
72798;BME280;61084;55.816;37.036;2023-12-20T08:46:02;97744.97;;;4.71;74.47
72798;BME280;61084;55.816;37.036;2023-12-20T08:48:28;97738.00;;;4.71;74.87
72798;BME280;61084;55.816;37.036;2023-12-20T08:50:54;97736.16;;;4.73;74.79
72798;BME280;61084;55.816;37.036;2023-12-20T08:53:20;97733.41;;;4.76;74.46
72798;BME280;61084;55.816;37.036;2023-12-20T08:55:46;97729.75;;;4.79;74.28
72798;BME280;61084;55.816;37.036;2023-12-20T08:58:13;97728.84;;;4.80;74.53
72798;BME280;61084;55.816;37.036;2023-12-20T09:00:39;97724.50;;;4.80;74.57
72798;BME280;61084;55.816;37.036;2023-12-20T09:03:05;97717.50;;;4.81;74.43
72798;BME280;61084;55.816;37.036;2023-12-20T09:05:32;97712.41;;;4.79;74.72
72798;BME280;61084;55.816;37.036;2023-12-20T09:07:58;97714.91;;;4.81;74.15
72798;BME280;61084;55.816;37.036;2023-12-20T09:10:24;97726.25;;;4.80;74.51
72798;BME280;61084;55.816;37.036;2023-12-20T09:12:50;97720.13;;;4.81;74.66
72798;BME280;61084;55.816;37.036;2023-12-20T09:15:17;97722.72;;;4.81;74.44
72798;BME280;61084;55.816;37.036;2023-12-20T09:17:43;97722.56;;;4.84;74.79
72798;BME280;61084;55.816;37.036;2023-12-20T09:20:09;97719.03;;;4.85;74.45
72798;BME280;61084;55.816;37.036;2023-12-20T09:22:36;97713.84;;;4.85;74.47
72798;BME280;61084;55.816;37.036;2023-12-20T09:25:04;97715.50;;;4.86;74.46
72798;BME280;61084;55.816;37.036;2023-12-20T09:27:31;97720.78;;;4.84;74.52
72798;BME280;61084;55.816;37.036;2023-12-20T09:29:57;97714.75;;;4.84;74.56
72798;BME280;61084;55.816;37.036;2023-12-20T09:32:23;97719.84;;;4.85;74.58
72798;BME280;61084;55.816;37.036;2023-12-20T09:34:49;97736.38;;;4.84;74.35
72798;BME280;61084;55.816;37.036;2023-12-20T09:37:14;97740.16;;;4.79;74.77
72798;BME280;61084;55.816;37.036;2023-12-20T09:39:40;97740.16;;;4.79;74.34
72798;BME280;61084;55.816;37.036;2023-12-20T09:42:06;97741.84;;;4.80;74.43
72798;BME280;61084;55.816;37.036;2023-12-20T09:44:33;97749.53;;;4.81;74.59
72798;BME280;61084;55.816;37.036;2023-12-20T09:47:03;97736.56;;;4.81;74.32
72798;BME280;61084;55.816;37.036;2023-12-20T09:49:29;97741.09;;;4.78;74.52
72798;BME280;61084;55.816;37.036;2023-12-20T09:51:56;97728.09;;;4.78;74.51
72798;BME280;61084;55.816;37.036;2023-12-20T09:54:23;97732.47;;;4.77;74.31
72798;BME280;61084;55.816;37.036;2023-12-20T09:56:50;97717.50;;;4.81;74.50
72798;BME280;61084;55.816;37.036;2023-12-20T09:59:16;97714.91;;;4.81;74.75
72798;BME280;61084;55.816;37.036;2023-12-20T10:01:42;97726.84;;;4.85;74.36
72798;BME280;61084;55.816;37.036;2023-12-20T10:04:09;97723.41;;;4.84;74.29
72798;BME280;61084;55.816;37.036;2023-12-20T10:06:39;97727.84;;;4.82;74.81
72798;BME280;61084;55.816;37.036;2023-12-20T10:09:06;97727.84;;;4.82;74.21
72798;BME280;61084;55.816;37.036;2023-12-20T10:11:32;97723.56;;;4.81;74.76
72798;BME280;61084;55.816;37.036;2023-12-20T10:14:01;97719.19;;;4.82;74.72
72798;BME280;61084;55.816;37.036;2023-12-20T10:16:27;97720.13;;;4.81;74.27
72798;BME280;61084;55.816;37.036;2023-12-20T10:18:54;97733.88;;;4.83;74.60
72798;BME280;61084;55.816;37.036;2023-12-20T10:21:21;97733.94;;;4.81;74.53
72798;BME280;61084;55.816;37.036;2023-12-20T10:23:48;97744.19;;;4.84;74.73
72798;BME280;61084;55.816;37.036;2023-12-20T10:26:26;97742.44;;;4.85;74.71
72798;BME280;61084;55.816;37.036;2023-12-20T10:28:56;97733.59;;;4.87;74.80
72798;BME280;61084;55.816;37.036;2023-12-20T10:31:33;97744.00;;;4.87;74.22
72798;BME280;61084;55.816;37.036;2023-12-20T10:34:00;97736.13;;;4.89;74.48
72798;BME280;61084;55.816;37.036;2023-12-20T10:36:28;97732.53;;;4.91;74.62
72798;BME280;61084;55.816;37.036;2023-12-20T10:38:55;97735.03;;;4.93;74.69
72798;BME280;61084;55.816;37.036;2023-12-20T10:41:31;97734.09;;;4.94;74.02
72798;BME280;61084;55.816;37.036;2023-12-20T10:44:03;97733.09;;;4.96;74.53
72798;BME280;61084;55.816;37.036;2023-12-20T10:46:29;97716.84;;;4.93;74.37
72798;BME280;61084;55.816;37.036;2023-12-20T10:48:57;97711.63;;;4.93;74.19
72798;BME280;61084;55.816;37.036;2023-12-20T10:51:24;97711.72;;;4.91;74.45
72798;BME280;61084;55.816;37.036;2023-12-20T10:53:53;97722.19;;;4.90;74.00
72798;BME280;61084;55.816;37.036;2023-12-20T10:56:19;97711.16;;;4.86;74.16
72798;BME280;61084;55.816;37.036;2023-12-20T10:58:47;97714.50;;;4.88;74.35
72798;BME280;61084;55.816;37.036;2023-12-20T11:01:19;97720.53;;;4.89;74.26
72798;BME280;61084;55.816;37.036;2023-12-20T11:03:53;97730.09;;;4.88;74.00
72798;BME280;61084;55.816;37.036;2023-12-20T11:08:52;97728.13;;;4.92;74.37
72798;BME280;61084;55.816;37.036;2023-12-20T11:11:29;97736.97;;;4.89;74.43
72798;BME280;61084;55.816;37.036;2023-12-20T11:14:04;97731.78;;;4.89;74.23
72798;BME280;61084;55.816;37.036;2023-12-20T11:16:33;97729.25;;;4.88;74.21
72798;BME280;61084;55.816;37.036;2023-12-20T11:19:05;97731.84;;;4.88;74.21
72798;BME280;61084;55.816;37.036;2023-12-20T11:21:31;97728.34;;;4.89;74.17
72798;BME280;61084;55.816;37.036;2023-12-20T11:23:57;97729.09;;;4.91;74.14
72798;BME280;61084;55.816;37.036;2023-12-20T11:26:27;97737.78;;;4.90;74.16
72798;BME280;61084;55.816;37.036;2023-12-20T11:29:12;97736.19;;;4.87;74.12
72798;BME280;61084;55.816;37.036;2023-12-20T11:31:40;97732.03;;;4.85;74.27
72798;BME280;61084;55.816;37.036;2023-12-20T11:34:13;97736.28;;;4.86;74.22
72798;BME280;61084;55.816;37.036;2023-12-20T11:36:42;97743.00;;;4.90;74.10
72798;BME280;61084;55.816;37.036;2023-12-20T11:39:08;97744.59;;;4.92;73.96
72798;BME280;61084;55.816;37.036;2023-12-20T11:41:34;97742.06;;;4.91;74.16
72798;BME280;61084;55.816;37.036;2023-12-20T11:44:00;97740.13;;;4.94;73.70
72798;BME280;61084;55.816;37.036;2023-12-20T11:46:26;97748.69;;;4.96;74.06
72798;BME280;61084;55.816;37.036;2023-12-20T11:48:52;97745.25;;;4.96;73.99
72798;BME280;61084;55.816;37.036;2023-12-20T11:51:18;97754.97;;;4.92;74.00
72798;BME280;61084;55.816;37.036;2023-12-20T11:53:44;97749.97;;;4.89;73.82
72798;BME280;61084;55.816;37.036;2023-12-20T11:56:10;97752.56;;;4.89;74.11
72798;BME280;61084;55.816;37.036;2023-12-20T11:58:36;97757.84;;;4.88;74.15
72798;BME280;61084;55.816;37.036;2023-12-20T12:01:03;97746.88;;;4.83;74.24
72798;BME280;61084;55.816;37.036;2023-12-20T12:03:30;97750.22;;;4.85;73.85
72798;BME280;61084;55.816;37.036;2023-12-20T12:05:57;97748.44;;;4.85;73.85
72798;BME280;61084;55.816;37.036;2023-12-20T12:08:24;97746.69;;;4.86;74.14
72798;BME280;61084;55.816;37.036;2023-12-20T12:10:49;97758.03;;;4.85;73.82
72798;BME280;61084;55.816;37.036;2023-12-20T12:13:15;97757.94;;;4.86;74.27
72798;BME280;61084;55.816;37.036;2023-12-20T12:15:42;97757.09;;;4.86;73.89
72798;BME280;61084;55.816;37.036;2023-12-20T12:18:08;97758.84;;;4.85;74.07
72798;BME280;61084;55.816;37.036;2023-12-20T12:20:36;97760.44;;;4.88;73.99
72798;BME280;61084;55.816;37.036;2023-12-20T12:23:06;97767.50;;;4.86;74.12
72798;BME280;61084;55.816;37.036;2023-12-20T12:25:36;97777.13;;;4.84;73.96
72798;BME280;61084;55.816;37.036;2023-12-20T12:28:03;97777.97;;;4.84;74.02
72798;BME280;61084;55.816;37.036;2023-12-20T12:30:29;97789.13;;;4.86;74.39
72798;BME280;61084;55.816;37.036;2023-12-20T12:32:56;97788.13;;;4.89;74.38
72798;BME280;61084;55.816;37.036;2023-12-20T12:35:22;97796.75;;;4.89;73.97
72798;BME280;61084;55.816;37.036;2023-12-20T12:37:48;97802.72;;;4.91;73.99
72798;BME280;61084;55.816;37.036;2023-12-20T12:40:16;97796.66;;;4.91;74.19
72798;BME280;61084;55.816;37.036;2023-12-20T12:42:43;97810.41;;;4.93;74.09
72798;BME280;61084;55.816;37.036;2023-12-20T12:45:10;97810.56;;;4.90;74.13
72798;BME280;61084;55.816;37.036;2023-12-20T12:47:40;97819.38;;;4.87;73.85
72798;BME280;61084;55.816;37.036;2023-12-20T12:50:06;97818.72;;;4.84;74.01
72798;BME280;61084;55.816;37.036;2023-12-20T12:52:33;97818.81;;;4.82;74.37
72798;BME280;61084;55.816;37.036;2023-12-20T12:54:59;97808.22;;;4.85;74.14
72798;BME280;61084;55.816;37.036;2023-12-20T12:57:25;97803.03;;;4.85;73.93
72798;BME280;61084;55.816;37.036;2023-12-20T12:59:51;97809.91;;;4.86;74.17